createdAt,value
2019-06-26T00:00:10.768Z,101305.02
2019-06-26T00:02:18.172Z,101303.60
2019-06-26T00:04:25.628Z,101298.06
2019-06-26T00:06:33.374Z,101300.91
2019-06-26T00:08:41.090Z,101291.97
2019-06-26T00:10:49.047Z,101290.30
2019-06-26T00:12:56.697Z,101292.27
2019-06-26T00:15:04.234Z,101294.82
2019-06-26T00:17:11.590Z,101292.83
2019-06-26T00:19:18.984Z,101287.68
2019-06-26T00:21:26.351Z,101284.77
2019-06-26T00:23:34.871Z,101287.53
2019-06-26T00:25:42.842Z,101285.34
2019-06-26T00:27:50.225Z,101290.64
2019-06-26T00:29:57.559Z,101284.00
2019-06-26T00:32:04.955Z,101280.66
2019-06-26T00:34:12.427Z,101282.50
2019-06-26T00:36:20.293Z,101278.52
2019-06-26T00:38:28.069Z,101282.86
2019-06-26T00:40:35.922Z,101284.67
2019-06-26T00:42:43.705Z,101281.91
2019-06-26T00:44:51.516Z,101285.30
2019-06-26T00:46:59.273Z,101281.56
2019-06-26T00:49:06.817Z,101278.25
2019-06-26T00:51:14.601Z,101276.82
2019-06-26T00:53:21.987Z,101279.09
2019-06-26T00:55:29.336Z,101268.33
2019-06-26T00:57:36.989Z,101273.47
2019-06-26T00:59:44.549Z,101270.02
2019-06-26T01:01:52.599Z,101273.30
2019-06-26T01:04:04.435Z,101273.78
2019-06-26T01:06:31.007Z,101268.25
2019-06-26T01:08:38.707Z,101263.14
2019-06-26T01:10:46.349Z,101263.69
2019-06-26T01:12:54.664Z,101262.43
2019-06-26T01:15:02.395Z,101260.25
2019-06-26T01:17:10.143Z,101267.25
2019-06-26T01:19:17.909Z,101263.85
2019-06-26T01:21:25.666Z,101264.39
2019-06-26T01:23:33.379Z,101270.19
2019-06-26T01:25:41.280Z,101268.22
2019-06-26T01:27:49.478Z,101270.30
2019-06-26T01:29:56.961Z,101273.42
2019-06-26T01:32:04.627Z,101275.11
2019-06-26T01:34:12.394Z,101273.13
2019-06-26T01:36:20.074Z,101275.09
2019-06-26T01:38:27.527Z,101274.17
2019-06-26T01:40:34.879Z,101273.77
2019-06-26T01:42:42.290Z,101274.77
2019-06-26T01:44:49.702Z,101268.05
2019-06-26T01:46:57.081Z,101263.50
2019-06-26T01:49:04.675Z,101267.90
2019-06-26T01:51:12.284Z,101266.09
2019-06-26T01:53:20.009Z,101260.49
2019-06-26T01:55:27.699Z,101265.62
2019-06-26T01:57:35.611Z,101261.25
2019-06-26T01:59:43.323Z,101262.09
2019-06-26T02:01:50.725Z,101253.54
2019-06-26T02:03:58.126Z,101252.97
2019-06-26T02:06:05.634Z,101260.69
2019-06-26T02:08:13.068Z,101256.28
2019-06-26T02:10:20.935Z,101248.53
2019-06-26T02:12:28.383Z,101249.26
2019-06-26T02:14:35.813Z,101242.95
2019-06-26T02:16:43.504Z,101238.20
2019-06-26T02:18:55.335Z,101249.94
2019-06-26T02:21:03.205Z,101243.29
2019-06-26T02:23:10.952Z,101249.34
2019-06-26T02:25:18.916Z,101251.53
2019-06-26T02:27:26.742Z,101247.28
2019-06-26T02:29:34.551Z,101237.86
2019-06-26T02:31:42.028Z,101242.13
2019-06-26T02:33:49.470Z,101240.07
2019-06-26T02:35:56.765Z,101240.16
2019-06-26T02:38:04.171Z,101239.35
2019-06-26T02:40:12.359Z,101236.64
2019-06-26T02:42:19.799Z,101240.77
2019-06-26T02:44:27.225Z,101237.13
2019-06-26T02:46:34.712Z,101236.00
2019-06-26T02:48:42.110Z,101223.83
2019-06-26T02:50:49.993Z,101228.70
2019-06-26T02:52:57.717Z,101227.13
2019-06-26T02:55:05.860Z,101227.89
2019-06-26T02:57:13.308Z,101226.03
2019-06-26T02:59:22.063Z,101225.59
2019-06-26T03:01:29.807Z,101214.26
2019-06-26T03:03:37.523Z,101216.22
2019-06-26T03:05:44.854Z,101217.48
2019-06-26T03:07:52.427Z,101212.11
2019-06-26T03:10:00.152Z,101213.52
2019-06-26T03:12:08.599Z,101213.85
2019-06-26T03:14:16.292Z,101213.42
2019-06-26T03:16:23.640Z,101213.95
2019-06-26T03:18:31.013Z,101213.08
2019-06-26T03:20:43.844Z,101219.13
2019-06-26T03:22:51.364Z,101213.70
2019-06-26T03:24:58.772Z,101210.61
2019-06-26T03:27:09.038Z,101216.38
2019-06-26T03:29:15.656Z,101214.58
2019-06-26T03:31:23.185Z,101218.20
2019-06-26T03:33:30.609Z,101216.92
2019-06-26T03:35:40.730Z,101215.63
2019-06-26T03:37:47.652Z,101217.73
2019-06-26T03:39:55.369Z,101222.72
2019-06-26T03:42:02.845Z,101219.73
2019-06-26T03:44:10.320Z,101219.95
2019-06-26T03:46:17.773Z,101221.66
2019-06-26T03:48:25.177Z,101220.95
2019-06-26T03:50:32.605Z,101221.81
2019-06-26T03:52:40.233Z,101219.23
2019-06-26T03:54:48.061Z,101227.66
2019-06-26T03:56:55.782Z,101223.34
2019-06-26T03:59:03.505Z,101221.50
2019-06-26T04:01:11.336Z,101221.38
2019-06-26T04:03:19.017Z,101230.28
2019-06-26T04:05:26.890Z,101223.81
2019-06-26T04:07:34.529Z,101221.09
2019-06-26T04:09:42.216Z,101221.72
2019-06-26T04:11:50.142Z,101219.34
2019-06-26T04:13:57.771Z,101220.44
2019-06-26T04:16:05.830Z,101219.33
2019-06-26T04:18:13.257Z,101216.89
2019-06-26T04:20:21.137Z,101220.64
2019-06-26T04:22:28.944Z,101219.17
2019-06-26T04:24:36.523Z,101210.02
2019-06-26T04:26:44.122Z,101210.40
2019-06-26T04:28:51.511Z,101214.14
2019-06-26T04:30:58.898Z,101209.31
2019-06-26T04:33:06.383Z,101215.34
2019-06-26T04:35:15.232Z,101211.70
2019-06-26T04:37:22.728Z,101204.22
2019-06-26T04:39:30.256Z,101203.58
2019-06-26T04:41:37.746Z,101200.41
2019-06-26T04:43:45.256Z,101202.09
2019-06-26T04:45:57.950Z,101199.34
2019-06-26T04:48:02.782Z,101199.38
2019-06-26T04:50:10.802Z,101190.84
2019-06-26T04:52:18.587Z,101192.75
2019-06-26T04:54:26.331Z,101196.42
2019-06-26T04:56:34.230Z,101191.72
2019-06-26T04:58:42.053Z,101188.77
2019-06-26T05:00:49.664Z,101193.37
2019-06-26T05:02:57.445Z,101191.72
2019-06-26T05:05:05.994Z,101186.03
2019-06-26T05:07:13.521Z,101180.52
2019-06-26T05:09:21.344Z,101179.00
2019-06-26T05:11:29.157Z,101180.85
2019-06-26T05:13:36.674Z,101177.25
2019-06-26T05:15:44.241Z,101180.70
2019-06-26T05:17:51.938Z,101176.78
2019-06-26T05:20:00.124Z,101182.31
2019-06-26T05:22:08.048Z,101183.20
2019-06-26T05:24:15.567Z,101183.13
2019-06-26T05:26:23.179Z,101185.57
2019-06-26T05:28:30.804Z,101186.33
2019-06-26T05:30:38.615Z,101182.87
2019-06-26T05:32:46.425Z,101184.84
2019-06-26T05:34:54.109Z,101190.42
2019-06-26T05:37:01.881Z,101182.32
2019-06-26T05:39:10.181Z,101181.67
2019-06-26T05:41:18.045Z,101175.71
2019-06-26T05:43:26.110Z,101168.11
2019-06-26T05:45:33.989Z,101170.15
2019-06-26T05:47:41.922Z,101170.19
2019-06-26T05:49:49.608Z,101167.59
2019-06-26T05:51:57.345Z,101169.72
2019-06-26T05:54:05.404Z,101173.63
2019-06-26T05:56:13.117Z,101172.50
2019-06-26T05:58:20.888Z,101167.11
2019-06-26T06:00:28.820Z,101169.55
2019-06-26T06:02:36.667Z,101169.02
2019-06-26T06:04:44.669Z,101165.51
2019-06-26T06:06:52.584Z,101166.60
2019-06-26T06:09:00.262Z,101162.08
2019-06-26T06:11:08.019Z,101168.05
2019-06-26T06:13:15.818Z,101168.55
2019-06-26T06:15:41.246Z,101165.23
2019-06-26T06:17:49.084Z,101162.10
2019-06-26T06:19:56.806Z,101170.77
2019-06-26T06:22:04.672Z,101171.61
2019-06-26T06:24:12.652Z,101170.18
2019-06-26T06:26:20.476Z,101171.92
2019-06-26T06:28:28.342Z,101166.56
2019-06-26T06:30:36.355Z,101164.38
2019-06-26T06:32:44.758Z,101160.89
2019-06-26T06:34:52.591Z,101163.23
2019-06-26T06:37:00.480Z,101166.66
2019-06-26T06:39:09.279Z,101165.03
2019-06-26T06:41:17.109Z,101162.50
2019-06-26T06:43:25.019Z,101158.97
2019-06-26T06:45:33.086Z,101159.97
2019-06-26T06:47:40.850Z,101163.38
2019-06-26T06:49:48.650Z,101155.29
2019-06-26T06:51:56.485Z,101155.97
2019-06-26T06:54:04.364Z,101145.80
2019-06-26T06:56:12.318Z,101148.35
2019-06-26T06:58:20.081Z,101145.80
2019-06-26T07:00:28.355Z,101140.40
2019-06-26T07:02:36.501Z,101143.14
2019-06-26T07:04:44.623Z,101143.46
2019-06-26T07:06:52.885Z,101140.55
2019-06-26T07:09:01.283Z,101137.67
2019-06-26T07:11:09.146Z,101140.35
2019-06-26T07:13:16.863Z,101135.22
2019-06-26T07:15:25.640Z,101136.22
2019-06-26T07:17:33.724Z,101134.70
2019-06-26T07:19:41.782Z,101140.96
2019-06-26T07:21:49.849Z,101140.95
2019-06-26T07:23:57.959Z,101134.86
2019-06-26T07:26:05.944Z,101135.45
2019-06-26T07:28:13.835Z,101132.70
2019-06-26T07:30:22.478Z,101124.25
2019-06-26T07:32:30.299Z,101131.41
2019-06-26T07:34:38.168Z,101122.09
2019-06-26T07:36:46.172Z,101126.38
2019-06-26T07:38:54.901Z,101120.94
2019-06-26T07:41:03.126Z,101121.58
2019-06-26T07:43:11.258Z,101116.00
2019-06-26T07:45:19.554Z,101125.37
2019-06-26T07:47:41.801Z,101124.12
2019-06-26T07:49:37.177Z,101112.25
2019-06-26T07:51:45.060Z,101117.37
2019-06-26T07:53:52.919Z,101115.14
2019-06-26T07:56:42.597Z,101116.16
2019-06-26T07:58:50.857Z,101108.63
2019-06-26T08:00:58.546Z,101113.56
2019-06-26T08:03:06.279Z,101113.14
2019-06-26T08:05:14.851Z,101102.47
2019-06-26T08:07:22.592Z,101108.23
2019-06-26T08:09:30.266Z,101105.92
2019-06-26T08:11:37.879Z,101099.52
2019-06-26T08:13:45.556Z,101099.00
2019-06-26T08:15:53.342Z,101092.73
2019-06-26T08:18:01.712Z,101095.36
2019-06-26T08:20:09.879Z,101097.19
2019-06-26T08:22:17.300Z,101090.52
2019-06-26T08:24:25.098Z,101087.18
2019-06-26T08:26:32.936Z,101081.48
2019-06-26T08:28:40.775Z,101083.34
2019-06-26T08:30:48.285Z,101086.38
2019-06-26T08:32:55.816Z,101082.02
2019-06-26T08:35:03.915Z,101079.64
2019-06-26T08:37:11.416Z,101072.78
2019-06-26T08:39:18.848Z,101073.86
2019-06-26T08:41:26.452Z,101069.70
2019-06-26T08:43:34.417Z,101067.06
2019-06-26T08:48:22.625Z,101060.28
2019-06-26T08:50:23.178Z,101068.57
2019-06-26T08:52:30.671Z,101062.11
2019-06-26T08:54:38.248Z,101069.05
2019-06-26T08:56:46.145Z,101074.55
2019-06-26T08:58:53.858Z,101068.11
2019-06-26T09:01:01.616Z,101066.69
2019-06-26T09:03:09.215Z,101059.00
2019-06-26T09:05:18.115Z,101056.70
2019-06-26T09:07:25.663Z,101052.48
2019-06-26T09:09:33.175Z,101050.05
2019-06-26T09:11:41.134Z,101049.86
2019-06-26T09:13:48.650Z,101051.05
2019-06-26T09:15:56.214Z,101044.03
2019-06-26T09:18:03.696Z,101044.48
2019-06-26T09:20:11.731Z,101041.13
2019-06-26T09:22:19.312Z,101038.04
2019-06-26T09:24:27.013Z,101038.22
2019-06-26T09:26:35.787Z,101044.77
2019-06-26T09:28:43.428Z,101041.41
2019-06-26T09:30:51.226Z,101037.73
2019-06-26T09:32:58.713Z,101030.03
2019-06-26T09:35:06.992Z,101026.97
2019-06-26T09:37:14.541Z,101023.37
2019-06-26T09:39:21.974Z,101033.95
2019-06-26T09:41:29.555Z,101031.56
2019-06-26T09:43:37.073Z,101020.94
2019-06-26T09:45:44.574Z,101028.57
2019-06-26T09:47:53.162Z,101021.48
2019-06-26T09:50:00.822Z,101020.66
2019-06-26T09:52:08.960Z,101020.78
2019-06-26T09:54:16.448Z,101021.09
2019-06-26T09:56:23.967Z,101013.65
2019-06-26T09:58:31.498Z,101010.48
2019-06-26T10:00:39.375Z,101016.37
2019-06-26T10:02:46.808Z,101016.50
2019-06-26T10:04:54.278Z,101003.66
2019-06-26T10:07:02.062Z,101006.66
2019-06-26T10:09:10.754Z,101003.67
2019-06-26T10:11:18.340Z,101001.27
2019-06-26T10:13:25.953Z,100993.58
2019-06-26T10:15:34.458Z,100998.58
2019-06-26T10:17:42.606Z,100999.40
2019-06-26T10:19:53.895Z,100998.54
2019-06-26T10:22:00.400Z,100989.39
2019-06-26T10:24:08.117Z,100987.20
2019-06-26T10:26:15.821Z,100986.89
2019-06-26T10:28:23.560Z,100987.20
2019-06-26T10:30:31.345Z,100985.10
2019-06-26T10:32:38.971Z,100978.70
2019-06-26T10:34:47.798Z,100972.47
2019-06-26T10:36:56.206Z,100986.10
2019-06-26T10:39:11.304Z,100975.44
2019-06-26T10:41:23.573Z,100974.92
2019-06-26T10:43:34.105Z,100964.14
2019-06-26T10:45:41.625Z,100968.44
2019-06-26T10:47:49.075Z,100960.29
2019-06-26T10:49:56.468Z,100960.36
2019-06-26T10:52:05.807Z,100949.88
2019-06-26T10:54:13.403Z,100955.05
2019-06-26T10:56:21.087Z,100949.79
2019-06-26T10:58:28.940Z,100950.84
2019-06-26T11:00:36.648Z,100947.92
2019-06-26T11:02:44.249Z,100936.00
2019-06-26T11:04:51.759Z,100944.50
2019-06-26T11:06:59.683Z,100942.81
2019-06-26T11:09:10.395Z,100926.29
2019-06-26T11:11:18.072Z,100928.11
2019-06-26T11:13:25.449Z,100918.05
2019-06-26T11:15:33.036Z,100920.70
2019-06-26T11:17:42.640Z,100916.90
2019-06-26T11:19:50.119Z,100912.47
2019-06-26T11:21:57.768Z,100910.97
2019-06-26T11:24:05.437Z,100902.70
2019-06-26T11:26:12.885Z,100909.06
2019-06-26T11:28:20.368Z,100896.15
2019-06-26T11:30:28.316Z,100899.31
2019-06-26T11:32:35.920Z,100893.78
2019-06-26T11:34:43.555Z,100887.66
2019-06-26T11:37:03.066Z,100885.69
2019-06-26T11:39:00.795Z,100880.17
2019-06-26T11:41:08.855Z,100869.75
2019-06-26T11:43:16.581Z,100871.68
2019-06-26T11:45:24.381Z,100866.58
2019-06-26T11:47:31.962Z,100865.83
2019-06-26T11:49:39.408Z,100857.56
2019-06-26T11:51:47.040Z,100854.70
2019-06-26T11:53:54.527Z,100854.28
2019-06-26T11:56:02.134Z,100844.42
2019-06-26T11:58:09.896Z,100849.75
2019-06-26T12:00:20.055Z,100842.09
2019-06-26T12:02:27.566Z,100836.75
2019-06-26T12:04:35.199Z,100833.83
2019-06-26T12:06:45.914Z,100834.58
2019-06-26T12:08:52.267Z,100824.95
2019-06-26T12:11:00.079Z,100820.94
2019-06-26T12:13:07.714Z,100821.34
2019-06-26T12:15:18.916Z,100815.04
2019-06-26T12:17:26.659Z,100820.45
2019-06-26T12:19:34.551Z,100817.00
2019-06-26T12:21:42.327Z,100814.27
2019-06-26T12:23:50.069Z,100812.84
2019-06-26T12:25:57.594Z,100805.42
2019-06-26T12:28:05.483Z,100802.48
2019-06-26T12:30:13.497Z,100805.35
2019-06-26T12:32:21.056Z,100799.74
2019-06-26T12:34:28.750Z,100796.33
2019-06-26T12:36:36.607Z,100802.94
2019-06-26T12:38:44.189Z,100802.34
2019-06-26T12:40:51.719Z,100800.03
2019-06-26T12:42:59.247Z,100791.04
2019-06-26T12:45:08.229Z,100787.65
2019-06-26T12:47:15.923Z,100791.32
2019-06-26T12:49:23.605Z,100782.16
2019-06-26T12:51:31.385Z,100776.77
2019-06-26T12:53:39.005Z,100779.34
2019-06-26T12:55:46.525Z,100779.22
2019-06-26T12:58:02.449Z,100767.36
2019-06-26T13:00:03.731Z,100774.33
2019-06-26T13:02:11.515Z,100762.00
2019-06-26T13:04:20.210Z,100766.11
2019-06-26T13:06:28.057Z,100762.48
2019-06-26T13:08:35.643Z,100754.93
2019-06-26T13:10:49.661Z,100746.27
2019-06-26T13:12:53.124Z,100747.70
2019-06-26T13:15:00.767Z,100744.65
2019-06-26T13:17:08.337Z,100741.48
2019-06-26T13:19:16.114Z,100736.80
2019-06-26T13:21:23.671Z,100733.02
2019-06-26T13:23:31.318Z,100731.15
2019-06-26T13:25:38.756Z,100734.80
2019-06-26T13:27:46.484Z,100734.20
2019-06-26T13:29:54.331Z,100727.28
2019-06-26T13:32:02.099Z,100728.83
2019-06-26T13:34:09.620Z,100719.22
2019-06-26T13:36:17.034Z,100718.75
2019-06-26T13:38:27.094Z,100723.89
2019-06-26T13:40:34.098Z,100723.05
2019-06-26T13:42:41.584Z,100716.17
2019-06-26T13:45:13.579Z,100710.07
2019-06-26T13:47:21.206Z,100712.16
2019-06-26T13:49:28.667Z,100714.77
2019-06-26T13:51:36.320Z,100703.26
2019-06-26T13:53:43.925Z,100698.05
2019-06-26T13:55:51.366Z,100701.64
2019-06-26T13:57:58.954Z,100693.17
2019-06-26T14:00:10.422Z,100691.04
2019-06-26T14:02:19.928Z,100691.64
2019-06-26T14:04:27.198Z,100691.83
2019-06-26T14:06:35.301Z,100685.02
2019-06-26T14:08:42.788Z,100685.29
2019-06-26T14:10:50.332Z,100689.69
2019-06-26T14:12:57.979Z,100685.29
2019-06-26T14:15:06.010Z,100683.00
2019-06-26T14:17:13.493Z,100679.31
2019-06-26T14:19:21.110Z,100677.52
2019-06-26T14:21:29.791Z,100673.23
2019-06-26T14:23:38.044Z,100670.00
2019-06-26T14:25:45.738Z,100664.42
2019-06-26T14:27:53.989Z,100661.00
2019-06-26T14:30:01.518Z,100656.37
2019-06-26T14:32:08.806Z,100654.38
2019-06-26T14:34:16.095Z,100644.27
2019-06-26T14:36:23.653Z,100652.70
2019-06-26T14:38:31.100Z,100650.24
2019-06-26T14:40:38.454Z,100641.14
2019-06-26T14:42:45.855Z,100637.13
2019-06-26T14:44:53.436Z,100631.00
2019-06-26T14:47:00.815Z,100638.73
2019-06-26T14:49:08.230Z,100621.77
2019-06-26T14:51:15.614Z,100626.02
2019-06-26T14:53:23.901Z,100625.05
2019-06-26T14:55:31.279Z,100615.63
2019-06-26T14:57:39.174Z,100609.81
2019-06-26T14:59:46.911Z,100617.20
2019-06-26T15:01:54.378Z,100621.11
2019-06-26T15:04:01.853Z,100614.86
2019-06-26T15:06:16.430Z,100617.91
2019-06-26T15:08:18.862Z,100608.79
2019-06-26T15:10:26.518Z,100604.19
2019-06-26T15:12:33.949Z,100600.09
2019-06-26T15:14:42.256Z,100599.52
2019-06-26T15:16:50.233Z,100590.06
2019-06-26T15:18:58.125Z,100589.94
2019-06-26T15:21:05.525Z,100586.73
2019-06-26T15:23:12.993Z,100586.91
2019-06-26T15:25:21.117Z,100580.16
2019-06-26T15:27:28.614Z,100574.86
2019-06-26T15:29:36.236Z,100570.73
2019-06-26T15:31:44.076Z,100569.43
2019-06-26T15:33:51.553Z,100565.72
2019-06-26T15:35:59.222Z,100554.94
2019-06-26T15:38:07.302Z,100558.59
2019-06-26T15:40:15.508Z,100551.43
2019-06-26T15:42:22.845Z,100551.91
2019-06-26T15:44:30.372Z,100545.61
2019-06-26T15:46:37.601Z,100538.88
2019-06-26T15:48:44.804Z,100546.00
2019-06-26T15:50:53.354Z,100546.16
2019-06-26T15:53:00.861Z,100535.37
2019-06-26T15:55:09.153Z,100528.98
2019-06-26T15:57:16.546Z,100535.37
2019-06-26T15:59:24.428Z,100532.05
2019-06-26T16:01:32.633Z,100529.90
2019-06-26T16:03:40.124Z,100519.67
2019-06-26T16:05:47.348Z,100520.61
2019-06-26T16:07:55.157Z,100519.51
2019-06-26T16:10:02.964Z,100523.08
2019-06-26T16:12:10.688Z,100512.61
2019-06-26T16:14:18.237Z,100505.34
2019-06-26T16:16:25.914Z,100511.58
2019-06-26T16:18:38.368Z,100503.70
2019-06-26T16:20:46.216Z,100503.53
2019-06-26T16:22:53.969Z,100500.20
2019-06-26T16:25:01.645Z,100503.95
2019-06-26T16:27:09.371Z,100498.03
2019-06-26T16:29:16.723Z,100492.50
2019-06-26T16:31:24.604Z,100501.56
2019-06-26T16:33:32.215Z,100495.17
2019-06-26T16:35:39.581Z,100494.28
2019-06-26T16:37:47.427Z,100491.42
2019-06-26T16:39:56.168Z,100492.79
2019-06-26T16:42:04.476Z,100492.84
2019-06-26T16:44:13.150Z,100493.27
2019-06-26T16:46:21.810Z,100491.07
2019-06-26T16:48:30.081Z,100500.45
2019-06-26T16:50:38.559Z,100499.19
2019-06-26T16:52:49.526Z,100493.81
2019-06-26T16:54:56.490Z,100494.82
2019-06-26T16:57:04.947Z,100498.75
2019-06-26T16:59:13.737Z,100499.00
2019-06-26T17:01:21.339Z,100489.66
2019-06-26T17:03:29.049Z,100487.47
2019-06-26T17:05:37.530Z,100484.50
2019-06-26T17:07:45.250Z,100482.67
2019-06-26T17:09:52.820Z,100483.00
2019-06-26T17:12:00.388Z,100475.21
2019-06-26T17:14:08.255Z,100474.31
2019-06-26T17:16:16.477Z,100475.21
2019-06-26T17:18:24.652Z,100470.53
2019-06-26T17:20:32.858Z,100470.36
2019-06-26T17:22:40.676Z,100475.06
2019-06-26T17:24:48.130Z,100478.08
2019-06-26T17:26:59.285Z,100478.14
2019-06-26T17:29:05.684Z,100471.97
2019-06-26T17:31:13.873Z,100477.88
2019-06-26T17:33:21.412Z,100472.56
2019-06-26T17:35:29.223Z,100482.28
2019-06-26T17:37:37.046Z,100476.08
2019-06-26T17:39:44.829Z,100471.91
2019-06-26T17:41:52.649Z,100462.41
2019-06-26T17:44:00.305Z,100469.16
2019-06-26T17:46:08.532Z,100460.34
2019-06-26T17:48:16.293Z,100464.98
2019-06-26T17:50:24.604Z,100466.88
2019-06-26T17:52:35.611Z,100460.12
2019-06-26T17:54:41.934Z,100454.02
2019-06-26T17:56:50.945Z,100459.89
2019-06-26T17:58:58.836Z,100460.14
2019-06-26T18:01:06.833Z,100457.88
2019-06-26T18:03:15.096Z,100454.54
2019-06-26T18:05:22.541Z,100451.98
2019-06-26T18:07:30.043Z,100450.94
2019-06-26T18:09:37.637Z,100450.74
2019-06-26T18:11:45.112Z,100450.06
2019-06-26T18:15:54.119Z,100444.98
2019-06-26T18:18:02.235Z,100443.91
2019-06-26T18:20:10.377Z,100445.11
2019-06-26T18:22:18.652Z,100433.43
2019-06-26T18:24:26.871Z,100436.97
2019-06-26T18:26:35.360Z,100429.34
2019-06-26T18:28:43.270Z,100434.16
2019-06-26T18:30:51.587Z,100428.52
2019-06-26T18:32:59.657Z,100428.11
2019-06-26T18:35:07.767Z,100415.98
2019-06-26T18:37:16.806Z,100419.97
2019-06-26T18:39:25.351Z,100415.14
2019-06-26T18:41:43.519Z,100416.84
2019-06-26T18:43:51.899Z,100423.83
2019-06-26T18:45:59.941Z,100416.63
2019-06-26T18:48:07.790Z,100419.72
2019-06-26T18:50:15.931Z,100411.38
2019-06-26T18:52:24.017Z,100414.19
2019-06-26T18:54:32.090Z,100415.21
2019-06-26T18:56:46.227Z,100409.03
2019-06-26T18:58:57.259Z,100409.14
2019-06-26T19:01:05.525Z,100411.45
2019-06-26T19:03:13.395Z,100406.29
2019-06-26T19:05:22.428Z,100405.05
2019-06-26T19:07:31.071Z,100402.84
2019-06-26T19:09:38.676Z,100399.13
2019-06-26T19:11:46.549Z,100405.79
2019-06-26T19:13:55.482Z,100396.47
2019-06-26T19:16:04.712Z,100396.36
2019-06-26T19:18:12.629Z,100393.73
2019-06-26T19:20:21.346Z,100391.65
2019-06-26T19:22:29.462Z,100385.07
2019-06-26T19:24:37.620Z,100392.87
2019-06-26T19:26:46.861Z,100392.70
2019-06-26T19:28:55.080Z,100381.83
2019-06-26T19:31:03.172Z,100380.78
2019-06-26T19:33:11.030Z,100380.17
2019-06-26T19:35:20.483Z,100376.21
2019-06-26T19:37:28.455Z,100372.53
2019-06-26T19:39:37.132Z,100370.92
2019-06-26T19:41:44.990Z,100363.06
2019-06-26T19:43:52.566Z,100357.48
2019-06-26T19:46:00.718Z,100361.78
2019-06-26T19:48:08.678Z,100350.07
2019-06-26T19:50:17.105Z,100351.09
2019-06-26T19:52:25.479Z,100347.74
2019-06-26T19:54:33.813Z,100343.89
2019-06-26T19:56:41.651Z,100335.01
2019-06-26T19:58:49.317Z,100337.72
2019-06-26T20:00:59.795Z,100326.34
2019-06-26T20:03:12.099Z,100330.38
2019-06-26T20:05:20.448Z,100327.34
2019-06-26T20:07:28.396Z,100318.75
2019-06-26T20:09:37.673Z,100318.75
2019-06-26T20:11:45.641Z,100323.57
2019-06-26T20:13:57.931Z,100323.71
2019-06-26T20:16:08.700Z,100316.73
2019-06-26T20:18:16.351Z,100314.75
2019-06-26T20:20:24.362Z,100306.77
2019-06-26T20:22:34.153Z,100311.89
2019-06-26T20:24:44.654Z,100312.11
2019-06-26T20:26:55.787Z,100314.91
2019-06-26T20:29:03.644Z,100303.50
2019-06-26T20:31:23.718Z,100305.34
2019-06-26T20:33:31.924Z,100303.66
2019-06-26T20:35:39.927Z,100297.56
2019-06-26T20:37:48.119Z,100298.92
2019-06-26T20:39:56.134Z,100300.12
2019-06-26T20:42:03.990Z,100304.22
2019-06-26T20:44:11.716Z,100310.31
2019-06-26T20:46:19.591Z,100304.43
2019-06-26T20:48:27.410Z,100297.39
2019-06-26T20:50:35.503Z,100298.88
2019-06-26T20:52:43.432Z,100298.00
2019-06-26T20:55:00.962Z,100298.06
2019-06-26T20:57:01.253Z,100296.47
2019-06-26T20:59:21.836Z,100294.05
2019-06-26T21:01:32.331Z,100297.94
2019-06-26T21:03:43.660Z,100296.16
2019-06-26T21:06:02.975Z,100301.87
2019-06-26T21:08:13.872Z,100302.97
2019-06-26T21:10:22.252Z,100306.66
2019-06-26T21:12:30.186Z,100307.19
2019-06-26T21:14:37.545Z,100305.48
2019-06-26T21:16:44.965Z,100307.05
2019-06-26T21:18:52.243Z,100312.45
2019-06-26T21:21:00.091Z,100303.09
2019-06-26T21:23:23.772Z,100303.86
2019-06-26T21:25:33.337Z,100299.56
2019-06-26T21:27:45.346Z,100295.81
2019-06-26T21:29:52.689Z,100300.70
2019-06-26T21:32:00.081Z,100307.81
2019-06-26T21:34:07.459Z,100309.41
2019-06-26T21:36:15.526Z,100312.00
2019-06-26T21:38:22.718Z,100311.61
2019-06-26T21:40:29.904Z,100312.88
2019-06-26T21:42:37.381Z,100308.17
2019-06-26T21:44:44.693Z,100298.85
2019-06-26T21:46:51.949Z,100300.33
2019-06-26T21:48:59.277Z,100293.22
2019-06-26T21:51:06.637Z,100282.27
2019-06-26T21:53:13.797Z,100289.75
2019-06-26T21:55:33.747Z,100292.86
2019-06-26T21:57:31.462Z,100287.87
2019-06-26T21:59:38.707Z,100278.08
2019-06-26T22:01:46.112Z,100268.02
2019-06-26T22:03:53.574Z,100258.79
2019-06-26T22:06:01.094Z,100269.83
2019-06-26T22:08:13.426Z,100260.72
2019-06-26T22:10:17.837Z,100262.78
2019-06-26T22:12:41.671Z,100261.72
2019-06-26T22:14:49.010Z,100265.96
2019-06-26T22:17:01.273Z,100256.48
2019-06-26T22:19:09.727Z,100244.13
2019-06-26T22:21:17.086Z,100244.13
2019-06-26T22:23:24.457Z,100246.31
2019-06-26T22:25:31.629Z,100244.66
2019-06-26T22:27:44.428Z,100249.79
2019-06-26T22:29:48.802Z,100248.77
2019-06-26T22:31:56.352Z,100263.19
2019-06-26T22:34:04.116Z,100280.08
2019-06-26T22:36:20.151Z,100296.51
2019-06-26T22:38:32.095Z,100313.51
2019-06-26T22:40:39.412Z,100345.52
2019-06-26T22:42:46.745Z,100355.06
2019-06-26T22:44:54.013Z,100357.80
2019-06-26T22:47:01.349Z,100350.62
2019-06-26T22:49:27.021Z,100334.63
2019-06-26T22:51:34.476Z,100330.14
2019-06-26T22:53:41.750Z,100339.89
2019-06-26T22:56:17.248Z,100327.34
2019-06-26T22:58:35.264Z,100340.72
2019-06-26T23:00:42.896Z,100327.74
2019-06-26T23:02:50.205Z,100339.58
2019-06-26T23:05:01.019Z,100343.60
2019-06-26T23:07:16.678Z,100342.45
2019-06-26T23:09:24.002Z,100342.77
2019-06-26T23:11:31.178Z,100336.55
2019-06-26T23:13:39.902Z,100326.61
2019-06-26T23:15:47.334Z,100335.54
2019-06-26T23:17:54.936Z,100339.59
2019-06-26T23:20:06.473Z,100346.29
2019-06-26T23:22:15.894Z,100333.36
2019-06-26T23:24:30.594Z,100345.97
2019-06-26T23:26:48.874Z,100345.81
2019-06-26T23:29:16.629Z,100341.10
2019-06-26T23:31:17.121Z,100345.30
2019-06-26T23:33:24.585Z,100343.44
2019-06-26T23:35:32.365Z,100345.97
2019-06-26T23:37:42.906Z,100346.15
2019-06-26T23:39:50.591Z,100349.86
2019-06-26T23:41:57.952Z,100350.37
2019-06-26T23:44:05.573Z,100338.75
2019-06-26T23:46:13.277Z,100334.72
2019-06-26T23:48:21.029Z,100344.45
2019-06-26T23:50:28.559Z,100338.42
2019-06-26T23:52:35.982Z,100346.98
2019-06-26T23:54:43.429Z,100344.30
2019-06-26T23:56:56.392Z,100343.14
2019-06-26T23:59:09.219Z,100341.45
